sensor_id;sensor_type;location;lat;lon;timestamp;P1;durP1;ratioP1;P2;durP2;ratioP2
12663;SDS011;6396;58.490;15.528;2023-06-14T00:02:19;6.13;;;3.97;;
12663;SDS011;6396;58.490;15.528;2023-06-14T00:04:45;4.77;;;4.10;;
12663;SDS011;6396;58.490;15.528;2023-06-14T00:07:13;4.13;;;3.77;;
12663;SDS011;6396;58.490;15.528;2023-06-14T00:09:41;7.17;;;4.53;;
12663;SDS011;6396;58.490;15.528;2023-06-14T00:12:08;3.70;;;3.40;;
12663;SDS011;6396;58.490;15.528;2023-06-14T00:14:36;4.80;;;3.53;;
12663;SDS011;6396;58.490;15.528;2023-06-14T00:17:03;4.87;;;4.00;;
12663;SDS011;6396;58.490;15.528;2023-06-14T00:19:32;5.50;;;3.73;;
12663;SDS011;6396;58.490;15.528;2023-06-14T00:22:00;4.77;;;3.70;;
12663;SDS011;6396;58.490;15.528;2023-06-14T00:24:28;5.57;;;3.83;;
12663;SDS011;6396;58.490;15.528;2023-06-14T00:26:55;4.23;;;3.87;;
12663;SDS011;6396;58.490;15.528;2023-06-14T00:29:21;4.47;;;3.93;;
12663;SDS011;6396;58.490;15.528;2023-06-14T00:31:50;4.90;;;3.43;;
12663;SDS011;6396;58.490;15.528;2023-06-14T00:34:16;7.53;;;3.40;;
12663;SDS011;6396;58.490;15.528;2023-06-14T00:36:43;5.93;;;3.50;;
12663;SDS011;6396;58.490;15.528;2023-06-14T00:39:10;4.37;;;3.83;;
12663;SDS011;6396;58.490;15.528;2023-06-14T00:41:37;4.67;;;3.67;;
12663;SDS011;6396;58.490;15.528;2023-06-14T00:44:04;5.23;;;3.70;;
12663;SDS011;6396;58.490;15.528;2023-06-14T00:46:31;4.97;;;3.40;;
12663;SDS011;6396;58.490;15.528;2023-06-14T00:48:59;7.47;;;3.73;;
12663;SDS011;6396;58.490;15.528;2023-06-14T00:51:28;4.77;;;4.20;;
12663;SDS011;6396;58.490;15.528;2023-06-14T00:53:54;8.40;;;4.37;;
12663;SDS011;6396;58.490;15.528;2023-06-14T00:56:21;4.17;;;3.77;;
12663;SDS011;6396;58.490;15.528;2023-06-14T00:58:49;6.50;;;3.37;;
12663;SDS011;6396;58.490;15.528;2023-06-14T01:01:16;5.70;;;3.70;;
12663;SDS011;6396;58.490;15.528;2023-06-14T01:03:43;5.20;;;3.67;;
12663;SDS011;6396;58.490;15.528;2023-06-14T01:06:15;3.33;;;2.97;;
12663;SDS011;6396;58.490;15.528;2023-06-14T01:08:56;4.83;;;3.67;;
12663;SDS011;6396;58.490;15.528;2023-06-14T01:11:29;5.53;;;3.67;;
12663;SDS011;6396;58.490;15.528;2023-06-14T01:13:59;7.00;;;3.50;;
12663;SDS011;6396;58.490;15.528;2023-06-14T01:16:29;9.90;;;4.13;;
12663;SDS011;6396;58.490;15.528;2023-06-14T01:18:57;6.90;;;3.67;;
12663;SDS011;6396;58.490;15.528;2023-06-14T01:21:26;6.20;;;3.63;;
12663;SDS011;6396;58.490;15.528;2023-06-14T01:23:55;6.50;;;4.00;;
12663;SDS011;6396;58.490;15.528;2023-06-14T01:26:22;5.67;;;3.83;;
12663;SDS011;6396;58.490;15.528;2023-06-14T01:28:49;5.17;;;3.60;;
12663;SDS011;6396;58.490;15.528;2023-06-14T01:31:18;9.10;;;4.03;;
12663;SDS011;6396;58.490;15.528;2023-06-14T01:33:46;6.23;;;3.73;;
12663;SDS011;6396;58.490;15.528;2023-06-14T01:36:15;5.50;;;4.07;;
12663;SDS011;6396;58.490;15.528;2023-06-14T01:38:44;9.47;;;4.10;;
12663;SDS011;6396;58.490;15.528;2023-06-14T01:41:14;8.70;;;3.70;;
12663;SDS011;6396;58.490;15.528;2023-06-14T01:43:42;4.33;;;3.73;;
12663;SDS011;6396;58.490;15.528;2023-06-14T01:46:09;6.93;;;3.70;;
12663;SDS011;6396;58.490;15.528;2023-06-14T01:48:38;5.63;;;3.67;;
12663;SDS011;6396;58.490;15.528;2023-06-14T01:51:04;5.37;;;3.77;;
12663;SDS011;6396;58.490;15.528;2023-06-14T01:53:31;5.03;;;3.43;;
12663;SDS011;6396;58.490;15.528;2023-06-14T01:56:00;4.97;;;3.57;;
12663;SDS011;6396;58.490;15.528;2023-06-14T01:58:29;5.90;;;3.80;;
12663;SDS011;6396;58.490;15.528;2023-06-14T02:00:56;4.53;;;3.43;;
12663;SDS011;6396;58.490;15.528;2023-06-14T02:03:25;6.00;;;4.17;;
12663;SDS011;6396;58.490;15.528;2023-06-14T02:05:53;3.93;;;3.13;;
12663;SDS011;6396;58.490;15.528;2023-06-14T02:08:20;4.30;;;3.60;;
12663;SDS011;6396;58.490;15.528;2023-06-14T02:10:47;5.93;;;3.93;;
12663;SDS011;6396;58.490;15.528;2023-06-14T02:13:14;10.30;;;3.83;;
12663;SDS011;6396;58.490;15.528;2023-06-14T02:15:43;10.27;;;4.03;;
12663;SDS011;6396;58.490;15.528;2023-06-14T02:18:10;6.43;;;4.10;;
12663;SDS011;6396;58.490;15.528;2023-06-14T02:20:40;6.23;;;3.70;;
12663;SDS011;6396;58.490;15.528;2023-06-14T02:23:07;6.30;;;3.87;;
12663;SDS011;6396;58.490;15.528;2023-06-14T02:25:34;6.60;;;4.00;;
12663;SDS011;6396;58.490;15.528;2023-06-14T02:28:02;7.17;;;4.00;;
12663;SDS011;6396;58.490;15.528;2023-06-14T02:30:29;4.70;;;3.80;;
12663;SDS011;6396;58.490;15.528;2023-06-14T02:32:57;4.00;;;3.43;;
12663;SDS011;6396;58.490;15.528;2023-06-14T02:35:24;6.17;;;4.20;;
12663;SDS011;6396;58.490;15.528;2023-06-14T02:37:51;6.53;;;3.80;;
12663;SDS011;6396;58.490;15.528;2023-06-14T02:40:19;6.37;;;4.23;;
12663;SDS011;6396;58.490;15.528;2023-06-14T02:42:46;5.13;;;3.87;;
12663;SDS011;6396;58.490;15.528;2023-06-14T02:45:12;6.97;;;4.00;;
12663;SDS011;6396;58.490;15.528;2023-06-14T02:47:40;5.17;;;3.80;;
12663;SDS011;6396;58.490;15.528;2023-06-14T02:50:08;8.27;;;4.17;;
12663;SDS011;6396;58.490;15.528;2023-06-14T02:52:35;6.13;;;3.87;;
12663;SDS011;6396;58.490;15.528;2023-06-14T02:55:03;5.50;;;3.80;;
12663;SDS011;6396;58.490;15.528;2023-06-14T02:57:31;5.77;;;4.00;;
12663;SDS011;6396;58.490;15.528;2023-06-14T02:59:58;5.30;;;4.00;;
12663;SDS011;6396;58.490;15.528;2023-06-14T03:02:24;5.60;;;4.07;;
12663;SDS011;6396;58.490;15.528;2023-06-14T03:04:52;5.33;;;3.63;;
12663;SDS011;6396;58.490;15.528;2023-06-14T03:07:20;7.93;;;4.17;;
12663;SDS011;6396;58.490;15.528;2023-06-14T03:09:48;5.03;;;4.53;;
12663;SDS011;6396;58.490;15.528;2023-06-14T03:12:15;5.17;;;4.40;;
12663;SDS011;6396;58.490;15.528;2023-06-14T03:14:42;8.53;;;4.23;;
12663;SDS011;6396;58.490;15.528;2023-06-14T03:17:11;4.90;;;4.40;;
12663;SDS011;6396;58.490;15.528;2023-06-14T03:19:38;6.87;;;5.20;;
12663;SDS011;6396;58.490;15.528;2023-06-14T03:22:06;8.93;;;4.90;;
12663;SDS011;6396;58.490;15.528;2023-06-14T03:24:34;5.47;;;4.70;;
12663;SDS011;6396;58.490;15.528;2023-06-14T03:27:01;5.40;;;4.77;;
12663;SDS011;6396;58.490;15.528;2023-06-14T03:29:29;7.00;;;4.93;;
12663;SDS011;6396;58.490;15.528;2023-06-14T03:31:56;6.07;;;4.90;;
12663;SDS011;6396;58.490;15.528;2023-06-14T03:34:24;5.47;;;4.10;;
12663;SDS011;6396;58.490;15.528;2023-06-14T03:36:51;8.23;;;4.90;;
12663;SDS011;6396;58.490;15.528;2023-06-14T03:39:19;8.97;;;4.77;;
12663;SDS011;6396;58.490;15.528;2023-06-14T03:41:47;6.07;;;4.40;;
12663;SDS011;6396;58.490;15.528;2023-06-14T03:44:15;6.97;;;4.50;;
12663;SDS011;6396;58.490;15.528;2023-06-14T03:46:43;6.27;;;4.97;;
12663;SDS011;6396;58.490;15.528;2023-06-14T03:49:11;4.80;;;4.30;;
12663;SDS011;6396;58.490;15.528;2023-06-14T03:51:38;5.53;;;4.63;;
12663;SDS011;6396;58.490;15.528;2023-06-14T03:54:06;6.40;;;4.70;;
12663;SDS011;6396;58.490;15.528;2023-06-14T03:56:33;8.40;;;5.40;;
12663;SDS011;6396;58.490;15.528;2023-06-14T03:59:01;5.83;;;4.80;;
12663;SDS011;6396;58.490;15.528;2023-06-14T04:01:28;6.37;;;4.70;;
12663;SDS011;6396;58.490;15.528;2023-06-14T04:03:56;6.93;;;4.17;;
12663;SDS011;6396;58.490;15.528;2023-06-14T04:06:23;6.23;;;4.63;;
12663;SDS011;6396;58.490;15.528;2023-06-14T04:08:57;5.77;;;4.70;;
12663;SDS011;6396;58.490;15.528;2023-06-14T04:11:29;4.87;;;4.37;;
12663;SDS011;6396;58.490;15.528;2023-06-14T04:13:57;6.40;;;4.57;;
12663;SDS011;6396;58.490;15.528;2023-06-14T04:16:26;8.33;;;5.10;;
12663;SDS011;6396;58.490;15.528;2023-06-14T04:18:54;6.90;;;4.53;;
12663;SDS011;6396;58.490;15.528;2023-06-14T04:21:20;5.63;;;4.90;;
12663;SDS011;6396;58.490;15.528;2023-06-14T04:23:48;7.13;;;4.53;;
12663;SDS011;6396;58.490;15.528;2023-06-14T04:26:18;6.47;;;4.83;;
12663;SDS011;6396;58.490;15.528;2023-06-14T04:28:46;6.87;;;5.23;;
12663;SDS011;6396;58.490;15.528;2023-06-14T04:31:13;7.97;;;5.80;;
12663;SDS011;6396;58.490;15.528;2023-06-14T04:33:42;7.33;;;4.63;;
12663;SDS011;6396;58.490;15.528;2023-06-14T04:36:11;5.30;;;4.70;;
12663;SDS011;6396;58.490;15.528;2023-06-14T04:38:38;6.33;;;5.20;;
12663;SDS011;6396;58.490;15.528;2023-06-14T04:41:06;8.27;;;5.00;;
12663;SDS011;6396;58.490;15.528;2023-06-14T04:43:36;6.50;;;4.90;;
12663;SDS011;6396;58.490;15.528;2023-06-14T04:46:04;6.00;;;4.90;;
12663;SDS011;6396;58.490;15.528;2023-06-14T04:48:36;8.30;;;5.57;;
12663;SDS011;6396;58.490;15.528;2023-06-14T04:51:06;14.90;;;6.20;;
12663;SDS011;6396;58.490;15.528;2023-06-14T04:53:33;8.17;;;5.10;;
12663;SDS011;6396;58.490;15.528;2023-06-14T04:55:59;6.70;;;4.93;;
12663;SDS011;6396;58.490;15.528;2023-06-14T04:58:28;8.80;;;4.97;;
12663;SDS011;6396;58.490;15.528;2023-06-14T05:00:55;6.30;;;4.67;;
12663;SDS011;6396;58.490;15.528;2023-06-14T05:03:24;8.20;;;5.47;;
12663;SDS011;6396;58.490;15.528;2023-06-14T05:05:51;6.00;;;5.03;;
12663;SDS011;6396;58.490;15.528;2023-06-14T05:08:20;10.00;;;4.60;;
12663;SDS011;6396;58.490;15.528;2023-06-14T05:10:48;5.43;;;4.90;;
12663;SDS011;6396;58.490;15.528;2023-06-14T05:13:15;6.57;;;4.30;;
12663;SDS011;6396;58.490;15.528;2023-06-14T05:15:42;7.03;;;4.83;;
12663;SDS011;6396;58.490;15.528;2023-06-14T05:18:09;6.63;;;4.40;;
12663;SDS011;6396;58.490;15.528;2023-06-14T05:20:36;10.63;;;4.67;;
12663;SDS011;6396;58.490;15.528;2023-06-14T05:23:03;7.40;;;5.47;;
12663;SDS011;6396;58.490;15.528;2023-06-14T05:25:31;7.57;;;4.70;;
12663;SDS011;6396;58.490;15.528;2023-06-14T05:27:58;7.47;;;4.97;;
12663;SDS011;6396;58.490;15.528;2023-06-14T05:30:25;6.83;;;5.13;;
12663;SDS011;6396;58.490;15.528;2023-06-14T05:32:54;7.07;;;4.83;;
12663;SDS011;6396;58.490;15.528;2023-06-14T05:35:24;8.03;;;5.20;;
12663;SDS011;6396;58.490;15.528;2023-06-14T05:37:51;5.17;;;4.23;;
12663;SDS011;6396;58.490;15.528;2023-06-14T05:40:19;10.60;;;4.93;;
12663;SDS011;6396;58.490;15.528;2023-06-14T05:42:47;13.10;;;5.60;;
12663;SDS011;6396;58.490;15.528;2023-06-14T05:45:14;8.43;;;5.00;;
12663;SDS011;6396;58.490;15.528;2023-06-14T05:47:41;8.07;;;6.10;;
12663;SDS011;6396;58.490;15.528;2023-06-14T05:50:08;5.60;;;4.27;;
12663;SDS011;6396;58.490;15.528;2023-06-14T05:52:36;6.13;;;4.90;;
12663;SDS011;6396;58.490;15.528;2023-06-14T05:55:03;7.73;;;4.60;;
12663;SDS011;6396;58.490;15.528;2023-06-14T05:57:31;6.03;;;4.47;;
12663;SDS011;6396;58.490;15.528;2023-06-14T05:59:59;6.90;;;5.30;;
12663;SDS011;6396;58.490;15.528;2023-06-14T06:02:26;7.93;;;5.03;;
12663;SDS011;6396;58.490;15.528;2023-06-14T06:04:52;8.70;;;4.97;;
12663;SDS011;6396;58.490;15.528;2023-06-14T06:07:19;6.23;;;4.53;;
12663;SDS011;6396;58.490;15.528;2023-06-14T06:09:47;6.47;;;4.97;;
12663;SDS011;6396;58.490;15.528;2023-06-14T06:12:14;5.83;;;4.97;;
12663;SDS011;6396;58.490;15.528;2023-06-14T06:14:40;5.90;;;5.00;;
12663;SDS011;6396;58.490;15.528;2023-06-14T06:17:09;6.40;;;5.07;;
12663;SDS011;6396;58.490;15.528;2023-06-14T06:19:36;9.97;;;5.10;;
12663;SDS011;6396;58.490;15.528;2023-06-14T06:22:03;6.43;;;5.27;;
12663;SDS011;6396;58.490;15.528;2023-06-14T06:24:31;5.83;;;4.87;;
12663;SDS011;6396;58.490;15.528;2023-06-14T06:26:58;7.23;;;5.30;;
12663;SDS011;6396;58.490;15.528;2023-06-14T06:29:25;11.17;;;5.73;;
12663;SDS011;6396;58.490;15.528;2023-06-14T06:31:52;6.40;;;5.20;;
12663;SDS011;6396;58.490;15.528;2023-06-14T06:34:20;8.50;;;4.90;;
12663;SDS011;6396;58.490;15.528;2023-06-14T06:36:47;4.77;;;4.27;;
12663;SDS011;6396;58.490;15.528;2023-06-14T06:39:13;8.47;;;5.13;;
12663;SDS011;6396;58.490;15.528;2023-06-14T06:41:40;5.60;;;4.93;;
12663;SDS011;6396;58.490;15.528;2023-06-14T06:44:07;7.63;;;4.90;;
12663;SDS011;6396;58.490;15.528;2023-06-14T06:46:35;6.27;;;4.60;;
12663;SDS011;6396;58.490;15.528;2023-06-14T06:49:05;7.07;;;4.63;;
12663;SDS011;6396;58.490;15.528;2023-06-14T06:51:34;5.63;;;4.93;;
12663;SDS011;6396;58.490;15.528;2023-06-14T06:54:01;5.63;;;4.40;;
12663;SDS011;6396;58.490;15.528;2023-06-14T06:56:28;5.73;;;5.17;;
12663;SDS011;6396;58.490;15.528;2023-06-14T06:58:56;8.13;;;4.40;;
12663;SDS011;6396;58.490;15.528;2023-06-14T07:01:23;5.37;;;4.87;;
12663;SDS011;6396;58.490;15.528;2023-06-14T07:03:51;8.60;;;4.70;;
12663;SDS011;6396;58.490;15.528;2023-06-14T07:06:18;4.63;;;4.23;;
12663;SDS011;6396;58.490;15.528;2023-06-14T07:08:47;4.97;;;4.40;;
12663;SDS011;6396;58.490;15.528;2023-06-14T07:11:14;5.33;;;4.37;;
12663;SDS011;6396;58.490;15.528;2023-06-14T07:13:41;6.97;;;4.50;;
12663;SDS011;6396;58.490;15.528;2023-06-14T07:16:07;4.80;;;4.23;;
12663;SDS011;6396;58.490;15.528;2023-06-14T07:18:34;6.23;;;4.83;;
12663;SDS011;6396;58.490;15.528;2023-06-14T07:21:02;5.33;;;4.50;;
12663;SDS011;6396;58.490;15.528;2023-06-14T07:23:29;6.83;;;4.60;;
12663;SDS011;6396;58.490;15.528;2023-06-14T07:25:57;5.60;;;4.00;;
12663;SDS011;6396;58.490;15.528;2023-06-14T07:28:24;7.97;;;4.80;;
12663;SDS011;6396;58.490;15.528;2023-06-14T07:30:51;4.90;;;4.50;;
12663;SDS011;6396;58.490;15.528;2023-06-14T07:33:18;7.73;;;4.50;;
12663;SDS011;6396;58.490;15.528;2023-06-14T07:35:44;7.67;;;4.27;;
12663;SDS011;6396;58.490;15.528;2023-06-14T07:38:13;7.67;;;4.80;;
12663;SDS011;6396;58.490;15.528;2023-06-14T07:40:39;8.57;;;5.10;;
12663;SDS011;6396;58.490;15.528;2023-06-14T07:43:08;6.23;;;5.10;;
12663;SDS011;6396;58.490;15.528;2023-06-14T07:45:34;8.53;;;4.90;;
12663;SDS011;6396;58.490;15.528;2023-06-14T07:48:01;8.10;;;5.33;;
12663;SDS011;6396;58.490;15.528;2023-06-14T07:50:28;7.53;;;5.10;;
12663;SDS011;6396;58.490;15.528;2023-06-14T07:52:55;6.17;;;4.97;;
12663;SDS011;6396;58.490;15.528;2023-06-14T07:55:22;5.80;;;4.80;;
12663;SDS011;6396;58.490;15.528;2023-06-14T07:57:50;9.77;;;5.17;;
12663;SDS011;6396;58.490;15.528;2023-06-14T08:00:19;5.10;;;4.60;;
12663;SDS011;6396;58.490;15.528;2023-06-14T08:02:46;10.23;;;5.00;;
12663;SDS011;6396;58.490;15.528;2023-06-14T08:05:13;9.43;;;4.43;;
12663;SDS011;6396;58.490;15.528;2023-06-14T08:07:40;5.67;;;4.40;;
12663;SDS011;6396;58.490;15.528;2023-06-14T08:10:07;6.10;;;4.80;;
12663;SDS011;6396;58.490;15.528;2023-06-14T08:12:34;6.30;;;4.80;;
12663;SDS011;6396;58.490;15.528;2023-06-14T08:15:01;6.40;;;4.15;;
12663;SDS011;6396;58.490;15.528;2023-06-14T08:17:29;4.60;;;3.92;;
12663;SDS011;6396;58.490;15.528;2023-06-14T08:19:56;5.65;;;4.68;;
12663;SDS011;6396;58.490;15.528;2023-06-14T08:22:23;6.10;;;4.57;;
12663;SDS011;6396;58.490;15.528;2023-06-14T08:24:51;4.50;;;4.00;;
12663;SDS011;6396;58.490;15.528;2023-06-14T08:27:19;4.80;;;3.95;;
12663;SDS011;6396;58.490;15.528;2023-06-14T08:29:46;5.75;;;4.38;;
12663;SDS011;6396;58.490;15.528;2023-06-14T08:32:12;4.38;;;3.83;;
12663;SDS011;6396;58.490;15.528;2023-06-14T08:34:41;8.05;;;4.50;;
12663;SDS011;6396;58.490;15.528;2023-06-14T08:37:07;7.55;;;4.53;;
12663;SDS011;6396;58.490;15.528;2023-06-14T08:39:34;7.95;;;4.40;;
12663;SDS011;6396;58.490;15.528;2023-06-14T08:42:03;4.75;;;3.88;;
12663;SDS011;6396;58.490;15.528;2023-06-14T08:44:33;8.15;;;4.35;;
12663;SDS011;6396;58.490;15.528;2023-06-14T08:47:00;5.13;;;4.32;;
12663;SDS011;6396;58.490;15.528;2023-06-14T08:49:28;4.72;;;3.33;;
12663;SDS011;6396;58.490;15.528;2023-06-14T08:52:00;4.97;;;4.03;;
12663;SDS011;6396;58.490;15.528;2023-06-14T08:54:27;4.40;;;4.00;;
12663;SDS011;6396;58.490;15.528;2023-06-14T08:56:55;5.18;;;3.88;;
12663;SDS011;6396;58.490;15.528;2023-06-14T08:59:23;4.65;;;4.25;;
12663;SDS011;6396;58.490;15.528;2023-06-14T09:01:52;3.58;;;3.28;;
12663;SDS011;6396;58.490;15.528;2023-06-14T09:04:19;3.85;;;3.50;;
12663;SDS011;6396;58.490;15.528;2023-06-14T09:06:46;4.35;;;3.50;;
12663;SDS011;6396;58.490;15.528;2023-06-14T09:09:19;6.35;;;3.35;;
12663;SDS011;6396;58.490;15.528;2023-06-14T09:11:48;3.70;;;3.40;;
12663;SDS011;6396;58.490;15.528;2023-06-14T09:14:15;6.32;;;3.47;;
12663;SDS011;6396;58.490;15.528;2023-06-14T09:16:44;6.25;;;3.92;;
12663;SDS011;6396;58.490;15.528;2023-06-14T09:19:13;5.47;;;3.88;;
12663;SDS011;6396;58.490;15.528;2023-06-14T09:21:40;4.47;;;3.60;;
12663;SDS011;6396;58.490;15.528;2023-06-14T09:24:12;4.28;;;3.70;;
12663;SDS011;6396;58.490;15.528;2023-06-14T09:26:42;3.92;;;3.60;;
12663;SDS011;6396;58.490;15.528;2023-06-14T09:29:09;4.80;;;3.83;;
12663;SDS011;6396;58.490;15.528;2023-06-14T09:31:36;5.10;;;3.78;;
12663;SDS011;6396;58.490;15.528;2023-06-14T09:34:03;5.80;;;3.72;;
12663;SDS011;6396;58.490;15.528;2023-06-14T09:36:30;4.13;;;3.72;;
12663;SDS011;6396;58.490;15.528;2023-06-14T09:38:58;4.65;;;3.72;;
12663;SDS011;6396;58.490;15.528;2023-06-14T09:41:32;4.07;;;3.70;;
12663;SDS011;6396;58.490;15.528;2023-06-14T09:44:00;3.60;;;3.30;;
12663;SDS011;6396;58.490;15.528;2023-06-14T09:46:28;4.38;;;3.97;;
12663;SDS011;6396;58.490;15.528;2023-06-14T09:48:56;3.65;;;3.35;;
12663;SDS011;6396;58.490;15.528;2023-06-14T09:51:24;3.40;;;3.20;;
12663;SDS011;6396;58.490;15.528;2023-06-14T09:53:52;4.07;;;3.60;;
12663;SDS011;6396;58.490;15.528;2023-06-14T09:56:21;3.63;;;3.10;;
12663;SDS011;6396;58.490;15.528;2023-06-14T09:58:54;6.28;;;3.30;;
12663;SDS011;6396;58.490;15.528;2023-06-14T10:01:24;5.97;;;3.30;;
12663;SDS011;6396;58.490;15.528;2023-06-14T10:03:53;3.85;;;3.08;;
12663;SDS011;6396;58.490;15.528;2023-06-14T10:06:26;3.90;;;3.50;;
12663;SDS011;6396;58.490;15.528;2023-06-14T10:08:56;3.17;;;2.97;;
12663;SDS011;6396;58.490;15.528;2023-06-14T10:11:24;4.32;;;3.30;;
12663;SDS011;6396;58.490;15.528;2023-06-14T10:13:52;4.63;;;3.40;;
12663;SDS011;6396;58.490;15.528;2023-06-14T10:16:20;3.22;;;3.03;;
12663;SDS011;6396;58.490;15.528;2023-06-14T10:18:58;3.80;;;3.40;;
12663;SDS011;6396;58.490;15.528;2023-06-14T10:21:32;3.50;;;3.20;;
12663;SDS011;6396;58.490;15.528;2023-06-14T10:24:05;4.20;;;3.78;;
12663;SDS011;6396;58.490;15.528;2023-06-14T10:26:39;3.53;;;3.22;;
12663;SDS011;6396;58.490;15.528;2023-06-14T10:29:16;3.65;;;3.38;;
12663;SDS011;6396;58.490;15.528;2023-06-14T10:31:45;6.40;;;3.38;;
12663;SDS011;6396;58.490;15.528;2023-06-14T10:34:20;3.83;;;3.22;;
12663;SDS011;6396;58.490;15.528;2023-06-14T10:37:00;3.50;;;3.20;;
12663;SDS011;6396;58.490;15.528;2023-06-14T10:39:28;3.47;;;3.28;;
12663;SDS011;6396;58.490;15.528;2023-06-14T10:41:56;3.70;;;3.13;;
12663;SDS011;6396;58.490;15.528;2023-06-14T10:47:08;5.68;;;3.60;;
12663;SDS011;6396;58.490;15.528;2023-06-14T10:49:41;5.40;;;3.58;;
12663;SDS011;6396;58.490;15.528;2023-06-14T10:52:13;3.67;;;3.38;;
12663;SDS011;6396;58.490;15.528;2023-06-14T10:54:58;3.50;;;3.20;;
12663;SDS011;6396;58.490;15.528;2023-06-14T10:57:26;3.60;;;3.33;;
12663;SDS011;6396;58.490;15.528;2023-06-14T10:59:54;3.63;;;3.35;;
12663;SDS011;6396;58.490;15.528;2023-06-14T11:02:33;5.63;;;3.40;;
12663;SDS011;6396;58.490;15.528;2023-06-14T11:05:16;3.63;;;3.33;;
12663;SDS011;6396;58.490;15.528;2023-06-14T11:07:53;3.70;;;3.40;;
12663;SDS011;6396;58.490;15.528;2023-06-14T11:10:32;3.60;;;3.10;;
12663;SDS011;6396;58.490;15.528;2023-06-14T11:13:02;6.93;;;3.80;;
12663;SDS011;6396;58.490;15.528;2023-06-14T11:15:30;5.63;;;3.67;;
12663;SDS011;6396;58.490;15.528;2023-06-14T11:17:58;4.82;;;3.85;;
12663;SDS011;6396;58.490;15.528;2023-06-14T11:20:29;5.30;;;3.70;;
12663;SDS011;6396;58.490;15.528;2023-06-14T11:22:57;4.82;;;3.50;;
12663;SDS011;6396;58.490;15.528;2023-06-14T11:25:24;4.05;;;3.75;;
12663;SDS011;6396;58.490;15.528;2023-06-14T11:27:51;4.63;;;3.78;;
12663;SDS011;6396;58.490;15.528;2023-06-14T11:30:18;3.75;;;3.45;;
12663;SDS011;6396;58.490;15.528;2023-06-14T11:32:46;3.88;;;3.47;;
12663;SDS011;6396;58.490;15.528;2023-06-14T11:35:15;3.92;;;3.58;;
12663;SDS011;6396;58.490;15.528;2023-06-14T11:37:43;5.10;;;3.45;;
12663;SDS011;6396;58.490;15.528;2023-06-14T11:40:10;4.15;;;3.53;;
12663;SDS011;6396;58.490;15.528;2023-06-14T11:42:39;4.38;;;3.47;;
12663;SDS011;6396;58.490;15.528;2023-06-14T11:45:07;3.60;;;3.30;;
12663;SDS011;6396;58.490;15.528;2023-06-14T11:47:35;6.68;;;3.50;;
12663;SDS011;6396;58.490;15.528;2023-06-14T11:50:04;6.10;;;3.80;;
12663;SDS011;6396;58.490;15.528;2023-06-14T11:52:33;5.70;;;4.00;;
12663;SDS011;6396;58.490;15.528;2023-06-14T11:55:01;3.95;;;3.55;;
12663;SDS011;6396;58.490;15.528;2023-06-14T11:57:29;3.58;;;3.28;;
12663;SDS011;6396;58.490;15.528;2023-06-14T11:59:56;4.20;;;3.80;;
12663;SDS011;6396;58.490;15.528;2023-06-14T12:02:23;5.30;;;3.28;;
12663;SDS011;6396;58.490;15.528;2023-06-14T12:04:52;3.85;;;3.55;;
12663;SDS011;6396;58.490;15.528;2023-06-14T12:07:20;3.80;;;3.42;;
12663;SDS011;6396;58.490;15.528;2023-06-14T12:12:40;5.72;;;3.75;;
12663;SDS011;6396;58.490;15.528;2023-06-14T12:15:09;4.05;;;3.58;;
12663;SDS011;6396;58.490;15.528;2023-06-14T12:17:37;4.28;;;3.78;;
12663;SDS011;6396;58.490;15.528;2023-06-14T12:20:07;3.70;;;3.40;;
12663;SDS011;6396;58.490;15.528;2023-06-14T12:22:39;3.65;;;3.35;;
12663;SDS011;6396;58.490;15.528;2023-06-14T12:25:24;4.13;;;3.72;;
12663;SDS011;6396;58.490;15.528;2023-06-14T12:27:53;4.18;;;3.33;;
12663;SDS011;6396;58.490;15.528;2023-06-14T12:30:20;3.45;;;3.15;;
12663;SDS011;6396;58.490;15.528;2023-06-14T12:32:47;3.95;;;3.45;;
12663;SDS011;6396;58.490;15.528;2023-06-14T12:35:16;4.68;;;4.00;;
12663;SDS011;6396;58.490;15.528;2023-06-14T12:37:43;4.97;;;3.67;;
12663;SDS011;6396;58.490;15.528;2023-06-14T12:40:11;4.13;;;3.72;;
12663;SDS011;6396;58.490;15.528;2023-06-14T12:42:39;3.83;;;3.50;;
12663;SDS011;6396;58.490;15.528;2023-06-14T12:45:07;5.40;;;3.58;;
12663;SDS011;6396;58.490;15.528;2023-06-14T12:47:34;4.90;;;3.95;;
12663;SDS011;6396;58.490;15.528;2023-06-14T12:50:01;5.13;;;3.85;;
12663;SDS011;6396;58.490;15.528;2023-06-14T12:52:28;3.75;;;3.42;;
12663;SDS011;6396;58.490;15.528;2023-06-14T12:54:55;7.55;;;4.10;;
12663;SDS011;6396;58.490;15.528;2023-06-14T12:57:22;4.53;;;3.95;;
12663;SDS011;6396;58.490;15.528;2023-06-14T12:59:51;4.18;;;3.70;;
12663;SDS011;6396;58.490;15.528;2023-06-14T13:02:18;4.40;;;4.00;;
12663;SDS011;6396;58.490;15.528;2023-06-14T13:04:47;4.00;;;3.55;;
12663;SDS011;6396;58.490;15.528;2023-06-14T13:07:14;3.90;;;3.50;;
12663;SDS011;6396;58.490;15.528;2023-06-14T13:09:41;5.82;;;4.15;;
12663;SDS011;6396;58.490;15.528;2023-06-14T13:12:08;3.58;;;3.28;;
12663;SDS011;6396;58.490;15.528;2023-06-14T13:14:37;4.10;;;3.70;;
12663;SDS011;6396;58.490;15.528;2023-06-14T13:17:05;4.00;;;3.70;;
12663;SDS011;6396;58.490;15.528;2023-06-14T13:19:32;4.25;;;3.65;;
12663;SDS011;6396;58.490;15.528;2023-06-14T13:22:00;3.95;;;3.65;;
12663;SDS011;6396;58.490;15.528;2023-06-14T13:24:27;4.28;;;3.88;;
12663;SDS011;6396;58.490;15.528;2023-06-14T13:26:54;5.10;;;3.70;;
12663;SDS011;6396;58.490;15.528;2023-06-14T13:29:22;3.58;;;3.28;;
12663;SDS011;6396;58.490;15.528;2023-06-14T13:31:49;5.93;;;3.30;;
12663;SDS011;6396;58.490;15.528;2023-06-14T13:34:17;3.95;;;3.65;;
12663;SDS011;6396;58.490;15.528;2023-06-14T13:36:44;6.63;;;3.97;;
12663;SDS011;6396;58.490;15.528;2023-06-14T13:39:12;4.40;;;4.00;;
12663;SDS011;6396;58.490;15.528;2023-06-14T13:41:39;6.57;;;4.05;;
12663;SDS011;6396;58.490;15.528;2023-06-14T13:44:05;5.20;;;3.75;;
12663;SDS011;6396;58.490;15.528;2023-06-14T13:46:32;4.40;;;4.00;;
12663;SDS011;6396;58.490;15.528;2023-06-14T13:48:59;4.43;;;3.55;;
12663;SDS011;6396;58.490;15.528;2023-06-14T13:51:28;4.22;;;3.78;;
12663;SDS011;6396;58.490;15.528;2023-06-14T13:53:55;5.05;;;3.88;;
12663;SDS011;6396;58.490;15.528;2023-06-14T13:56:22;5.03;;;3.90;;
12663;SDS011;6396;58.490;15.528;2023-06-14T13:58:49;4.10;;;3.70;;
12663;SDS011;6396;58.490;15.528;2023-06-14T14:01:16;6.35;;;3.90;;
12663;SDS011;6396;58.490;15.528;2023-06-14T14:03:44;4.68;;;4.28;;
12663;SDS011;6396;58.490;15.528;2023-06-14T14:06:11;4.15;;;3.80;;
12663;SDS011;6396;58.490;15.528;2023-06-14T14:08:40;4.53;;;4.13;;
12663;SDS011;6396;58.490;15.528;2023-06-14T14:11:07;4.75;;;4.20;;
12663;SDS011;6396;58.490;15.528;2023-06-14T14:13:34;5.28;;;4.18;;
12663;SDS011;6396;58.490;15.528;2023-06-14T14:16:02;5.32;;;3.90;;
12663;SDS011;6396;58.490;15.528;2023-06-14T14:18:29;4.70;;;3.83;;
12663;SDS011;6396;58.490;15.528;2023-06-14T14:20:57;5.82;;;3.47;;
12663;SDS011;6396;58.490;15.528;2023-06-14T14:23:25;5.90;;;4.10;;
12663;SDS011;6396;58.490;15.528;2023-06-14T14:25:54;4.90;;;3.95;;
12663;SDS011;6396;58.490;15.528;2023-06-14T14:28:21;4.40;;;3.55;;
12663;SDS011;6396;58.490;15.528;2023-06-14T14:30:48;4.18;;;3.78;;
12663;SDS011;6396;58.490;15.528;2023-06-14T14:33:15;4.07;;;3.70;;
12663;SDS011;6396;58.490;15.528;2023-06-14T14:35:42;4.82;;;4.35;;
12663;SDS011;6396;58.490;15.528;2023-06-14T14:38:11;4.20;;;3.80;;
12663;SDS011;6396;58.490;15.528;2023-06-14T14:40:38;4.80;;;3.63;;
12663;SDS011;6396;58.490;15.528;2023-06-14T14:43:06;4.07;;;3.67;;
12663;SDS011;6396;58.490;15.528;2023-06-14T14:45:33;6.50;;;3.92;;
12663;SDS011;6396;58.490;15.528;2023-06-14T14:48:00;5.72;;;4.10;;
12663;SDS011;6396;58.490;15.528;2023-06-14T14:50:28;4.40;;;3.97;;
12663;SDS011;6396;58.490;15.528;2023-06-14T14:52:55;5.18;;;3.90;;
12663;SDS011;6396;58.490;15.528;2023-06-14T14:55:22;5.10;;;3.78;;
12663;SDS011;6396;58.490;15.528;2023-06-14T14:57:49;4.03;;;3.63;;
12663;SDS011;6396;58.490;15.528;2023-06-14T15:00:18;4.45;;;3.45;;